CKS251 KOAK-KCVG
Flight info
| Callsign | CKS251 |
|---|---|
| Flight time | 3h 29m |
| Altitude | 37000 |
| Route | OAK6 OAK DCT SYRAH Q128 JSICA DCT SAKES J80 JNC DCT HGO DCT HLC J80 MCI J24 STL DCT ENL DCT DAAVE SARGO5 |
| Aircraft | B77L/H-SDE1E2E3FGHIJ2J3J4J5M1RWXY/LB1D1 |
Departure
| Time | 2026-04-29 20:35 |
|---|---|
| Airport | San Francisco Bay Oakland International Airport (KOAK) |
Arrival
| Time | 2026-04-30 00:04 |
|---|---|
| Airport | Cincinnati Northern Kentucky International Airport (KCVG) |
| Time | Latitude | Longitude | Altitude | Speed | Heading |
|---|---|---|---|---|---|
| 2026-04-29 19:56 | 37.71695 | -122.22066 | 20 ft | 0 kts | 319° |
| 2026-04-29 20:26 | 37.71693 | -122.22065 | 19 ft | 1 kts | 319° |
| 2026-04-29 20:26 | 37.71682 | -122.22053 | 19 ft | 2 kts | 319° |
| 2026-04-29 20:26 | 37.71671 | -122.22041 | 19 ft | 2 kts | 319° |
| 2026-04-29 20:26 | 37.71661 | -122.22028 | 19 ft | 0 kts | 319° |
| 2026-04-29 20:27 | 37.71653 | -122.22020 | 19 ft | 2 kts | 290° |
| 2026-04-29 20:27 | 37.71652 | -122.22008 | 19 ft | 2 kts | 254° |
| 2026-04-29 20:27 | 37.71657 | -122.21995 | 19 ft | 1 kts | 227° |
| 2026-04-29 20:27 | 37.71659 | -122.21993 | 20 ft | 0 kts | 228° |
| 2026-04-29 20:28 | 37.71659 | -122.21994 | 19 ft | 0 kts | 228° |
| 2026-04-29 20:29 | 37.71653 | -122.22002 | 19 ft | 2 kts | 228° |
| 2026-04-29 20:30 | 37.71644 | -122.22014 | 19 ft | 2 kts | 228° |
| 2026-04-29 20:30 | 37.71617 | -122.22051 | 19 ft | 7 kts | 219° |
| 2026-04-29 20:30 | 37.71565 | -122.22035 | 19 ft | 11 kts | 138° |
| 2026-04-29 20:30 | 37.71493 | -122.21980 | 19 ft | 14 kts | 192° |
| 2026-04-29 20:31 | 37.71421 | -122.22063 | 19 ft | 13 kts | 228° |
| 2026-04-29 20:31 | 37.71352 | -122.22163 | 19 ft | 16 kts | 229° |
| 2026-04-29 20:31 | 37.71266 | -122.22272 | 19 ft | 18 kts | 220° |
| 2026-04-29 20:31 | 37.71160 | -122.22376 | 19 ft | 19 kts | 219° |
| 2026-04-29 20:32 | 37.71050 | -122.22397 | 19 ft | 18 kts | 139° |
| 2026-04-29 20:32 | 37.70956 | -122.22259 | 19 ft | 22 kts | 130° |
| 2026-04-29 20:32 | 37.70851 | -122.22104 | 19 ft | 22 kts | 130° |
| 2026-04-29 20:32 | 37.70753 | -122.21957 | 19 ft | 21 kts | 130° |
| 2026-04-29 20:33 | 37.70660 | -122.21818 | 19 ft | 20 kts | 130° |
| 2026-04-29 20:33 | 37.70570 | -122.21684 | 19 ft | 19 kts | 130° |
| 2026-04-29 20:33 | 37.70488 | -122.21560 | 19 ft | 17 kts | 130° |
| 2026-04-29 20:33 | 37.70411 | -122.21446 | 19 ft | 16 kts | 134° |
| 2026-04-29 20:34 | 37.70298 | -122.21369 | 18 ft | 19 kts | 163° |
| 2026-04-29 20:34 | 37.70188 | -122.21406 | 20 ft | 15 kts | 229° |
| 2026-04-29 20:34 | 37.70203 | -122.21510 | 19 ft | 15 kts | 310° |
| 2026-04-29 20:34 | 37.70401 | -122.21808 | 19 ft | 79 kts | 310° |
| 2026-04-29 20:35 | 37.70907 | -122.22559 | 19 ft | 144 kts | 310° |
| 2026-04-29 20:35 | 37.71639 | -122.23637 | 374 ft | 165 kts | 307° |
| 2026-04-29 20:35 | 37.72289 | -122.24831 | 1044 ft | 173 kts | 302° |
| 2026-04-29 20:35 | 37.72931 | -122.26112 | 1564 ft | 181 kts | 302° |
| 2026-04-29 20:36 | 37.73626 | -122.27506 | 1932 ft | 200 kts | 302° |
| 2026-04-29 20:36 | 37.74450 | -122.29107 | 2082 ft | 232 kts | 303° |
| 2026-04-29 20:36 | 37.75379 | -122.30892 | 2062 ft | 252 kts | 303° |
| 2026-04-29 20:36 | 37.76339 | -122.32793 | 2832 ft | 257 kts | 303° |
| 2026-04-29 20:37 | 37.77286 | -122.34666 | 3669 ft | 260 kts | 303° |
| 2026-04-29 20:37 | 37.78469 | -122.36412 | 4387 ft | 264 kts | 326° |
| 2026-04-29 20:37 | 37.80139 | -122.37277 | 5140 ft | 265 kts | 354° |
| 2026-04-29 20:37 | 37.81952 | -122.37041 | 5908 ft | 265 kts | 22° |
| 2026-04-29 20:38 | 37.83479 | -122.35816 | 6650 ft | 267 kts | 40° |
| 2026-04-29 20:38 | 37.84851 | -122.34236 | 7405 ft | 269 kts | 43° |
| 2026-04-29 20:38 | 37.86213 | -122.32608 | 8092 ft | 273 kts | 43° |
| 2026-04-29 20:38 | 37.87611 | -122.30924 | 8733 ft | 278 kts | 43° |
| 2026-04-29 20:39 | 37.88993 | -122.29253 | 9400 ft | 281 kts | 43° |
| 2026-04-29 20:39 | 37.90413 | -122.27524 | 10075 ft | 284 kts | 43° |
| 2026-04-29 20:39 | 37.91839 | -122.25733 | 10486 ft | 298 kts | 49° |
| 2026-04-29 20:39 | 37.92863 | -122.23377 | 10718 ft | 320 kts | 72° |
| 2026-04-29 20:40 | 37.93213 | -122.20511 | 11022 ft | 339 kts | 83° |
| 2026-04-29 20:40 | 37.93405 | -122.17493 | 11357 ft | 356 kts | 83° |
| 2026-04-29 20:40 | 37.93591 | -122.14305 | 11776 ft | 371 kts | 83° |
| 2026-04-29 20:40 | 37.93781 | -122.11015 | 12346 ft | 381 kts | 83° |
| 2026-04-29 20:41 | 37.93974 | -122.07646 | 13148 ft | 386 kts | 83° |
| 2026-04-29 20:41 | 37.94166 | -122.04262 | 14074 ft | 388 kts | 83° |
| 2026-04-29 20:41 | 37.94357 | -122.00882 | 14971 ft | 393 kts | 83° |
| 2026-04-29 20:41 | 37.94554 | -121.97395 | 15859 ft | 398 kts | 83° |
| 2026-04-29 20:42 | 37.94750 | -121.93903 | 16755 ft | 403 kts | 82° |
| 2026-04-29 20:42 | 37.94945 | -121.90399 | 17617 ft | 407 kts | 82° |
| 2026-04-29 20:42 | 37.95145 | -121.86777 | 18447 ft | 413 kts | 82° |
| 2026-04-29 20:42 | 37.95346 | -121.83140 | 19199 ft | 420 kts | 82° |
| 2026-04-29 20:43 | 37.95549 | -121.79460 | 19894 ft | 428 kts | 82° |
| 2026-04-29 20:43 | 37.95757 | -121.75648 | 20632 ft | 435 kts | 82° |
| 2026-04-29 20:43 | 37.95963 | -121.71828 | 21396 ft | 440 kts | 81° |
| 2026-04-29 20:43 | 37.96170 | -121.67988 | 22093 ft | 446 kts | 81° |
| 2026-04-29 20:44 | 37.96382 | -121.64027 | 22784 ft | 452 kts | 81° |
| 2026-04-29 20:44 | 37.96592 | -121.60081 | 23478 ft | 458 kts | 81° |
| 2026-04-29 20:44 | 37.96805 | -121.56038 | 24220 ft | 462 kts | 81° |
| 2026-04-29 20:44 | 37.97019 | -121.51958 | 24925 ft | 467 kts | 81° |
| 2026-04-29 20:45 | 37.97230 | -121.47887 | 25579 ft | 472 kts | 81° |
| 2026-04-29 20:45 | 37.97446 | -121.43713 | 26240 ft | 477 kts | 81° |
| 2026-04-29 20:45 | 37.97662 | -121.39493 | 26920 ft | 482 kts | 81° |
| 2026-04-29 20:45 | 37.97875 | -121.35305 | 27609 ft | 486 kts | 81° |
| 2026-04-29 20:46 | 37.98092 | -121.30981 | 28267 ft | 491 kts | 82° |
| 2026-04-29 20:46 | 37.98310 | -121.26633 | 28873 ft | 497 kts | 82° |
| 2026-04-29 20:46 | 37.98526 | -121.22274 | 29507 ft | 502 kts | 82° |
| 2026-04-29 20:46 | 37.98739 | -121.17892 | 30301 ft | 502 kts | 82° |
| 2026-04-29 20:47 | 37.98952 | -121.13486 | 31270 ft | 497 kts | 82° |
| 2026-04-29 20:47 | 37.99276 | -121.09229 | 32191 ft | 487 kts | 76° |
| 2026-04-29 20:47 | 37.99895 | -121.05015 | 32970 ft | 483 kts | 73° |
| 2026-04-29 20:47 | 38.00545 | -121.00869 | 33623 ft | 482 kts | 73° |
| 2026-04-29 20:48 | 38.01192 | -120.96745 | 34293 ft | 482 kts | 73° |
| 2026-04-29 20:48 | 38.01835 | -120.92615 | 34993 ft | 480 kts | 73° |
| 2026-04-29 20:48 | 38.02486 | -120.88422 | 35714 ft | 478 kts | 73° |
| 2026-04-29 20:48 | 38.03142 | -120.84167 | 36466 ft | 475 kts | 73° |
| 2026-04-29 20:49 | 38.03792 | -120.79951 | 37033 ft | 475 kts | 74° |
| 2026-04-29 20:49 | 38.04439 | -120.75745 | 37083 ft | 478 kts | 73° |
| 2026-04-29 20:49 | 38.05704 | -120.67457 | 37088 ft | 475 kts | 73° |
| 2026-04-29 20:50 | 38.06958 | -120.59206 | 37091 ft | 478 kts | 73° |
| 2026-04-29 20:50 | 38.08214 | -120.50890 | 37083 ft | 477 kts | 73° |
| 2026-04-29 20:51 | 38.09464 | -120.42573 | 37105 ft | 479 kts | 74° |
| 2026-04-29 20:51 | 38.10699 | -120.34311 | 37132 ft | 479 kts | 75° |
| 2026-04-29 20:52 | 38.11933 | -120.26012 | 37155 ft | 482 kts | 74° |
| 2026-04-29 20:52 | 38.13165 | -120.17685 | 37177 ft | 479 kts | 75° |
| 2026-04-29 20:53 | 38.14397 | -120.09322 | 37190 ft | 484 kts | 75° |
| 2026-04-29 20:53 | 38.15619 | -120.00975 | 37197 ft | 483 kts | 75° |
| 2026-04-29 20:54 | 38.17443 | -119.88442 | 37192 ft | 485 kts | 75° |
| 2026-04-29 20:55 | 38.18659 | -119.80026 | 37203 ft | 484 kts | 75° |
| 2026-04-29 20:55 | 38.19865 | -119.71639 | 37199 ft | 486 kts | 75° |
| 2026-04-29 20:56 | 38.21070 | -119.63213 | 37198 ft | 485 kts | 75° |
| 2026-04-29 20:56 | 38.22269 | -119.54791 | 37193 ft | 487 kts | 75° |
| 2026-04-29 20:57 | 38.23463 | -119.46351 | 37196 ft | 487 kts | 75° |
| 2026-04-29 20:57 | 38.24656 | -119.37872 | 37205 ft | 489 kts | 75° |
| 2026-04-29 20:58 | 38.25851 | -119.29336 | 37210 ft | 491 kts | 75° |
| 2026-04-29 20:58 | 38.27035 | -119.20830 | 37213 ft | 489 kts | 75° |
| 2026-04-29 20:59 | 38.28208 | -119.12357 | 37212 ft | 492 kts | 75° |
| 2026-04-29 20:59 | 38.28800 | -119.08067 | 37050 ft | 493 kts | 75° |
| 2026-04-29 20:59 | 38.29392 | -119.03757 | 37232 ft | 492 kts | 76° |
| 2026-04-29 21:00 | 38.30566 | -118.95185 | 37211 ft | 494 kts | 75° |
| 2026-04-29 21:00 | 38.31732 | -118.86618 | 37213 ft | 495 kts | 75° |
| 2026-04-29 21:01 | 38.32900 | -118.77992 | 37211 ft | 497 kts | 75° |
| 2026-04-29 21:01 | 38.34061 | -118.69357 | 37209 ft | 497 kts | 75° |
| 2026-04-29 21:01 | 38.34644 | -118.65013 | 37310 ft | 499 kts | 76° |
| 2026-04-29 21:02 | 38.35220 | -118.60699 | 37214 ft | 496 kts | 75° |
| 2026-04-29 21:02 | 38.36370 | -118.52053 | 37202 ft | 498 kts | 75° |
| 2026-04-29 21:03 | 38.37513 | -118.43410 | 37201 ft | 496 kts | 75° |
| 2026-04-29 21:03 | 38.38655 | -118.34728 | 37211 ft | 500 kts | 76° |
| 2026-04-29 21:04 | 38.39793 | -118.26022 | 37204 ft | 501 kts | 76° |
| 2026-04-29 21:04 | 38.40935 | -118.17228 | 37201 ft | 501 kts | 76° |
| 2026-04-29 21:05 | 38.42060 | -118.08515 | 37191 ft | 502 kts | 76° |
| 2026-04-29 21:05 | 38.43183 | -117.99766 | 37193 ft | 503 kts | 76° |
| 2026-04-29 21:06 | 38.44301 | -117.90999 | 37197 ft | 503 kts | 76° |
| 2026-04-29 21:06 | 38.45417 | -117.82197 | 37195 ft | 506 kts | 76° |
| 2026-04-29 21:07 | 38.46533 | -117.73338 | 37191 ft | 505 kts | 76° |
| 2026-04-29 21:07 | 38.47643 | -117.64467 | 37188 ft | 505 kts | 77° |
| 2026-04-29 21:08 | 38.48742 | -117.55639 | 37195 ft | 509 kts | 77° |
| 2026-04-29 21:08 | 38.49848 | -117.46688 | 37192 ft | 508 kts | 77° |
| 2026-04-29 21:09 | 38.50941 | -117.37785 | 37205 ft | 510 kts | 77° |
| 2026-04-29 21:09 | 38.52007 | -117.28836 | 37192 ft | 512 kts | 80° |
| 2026-04-29 21:10 | 38.52715 | -117.19779 | 37188 ft | 514 kts | 81° |
| 2026-04-29 21:10 | 38.53386 | -117.10656 | 37196 ft | 515 kts | 81° |
| 2026-04-29 21:11 | 38.54046 | -117.01599 | 37186 ft | 514 kts | 82° |
| 2026-04-29 21:11 | 38.54700 | -116.92511 | 37206 ft | 514 kts | 82° |
| 2026-04-29 21:12 | 38.55345 | -116.83469 | 37204 ft | 518 kts | 82° |
| 2026-04-29 21:12 | 38.55991 | -116.74297 | 37201 ft | 516 kts | 82° |
| 2026-04-29 21:13 | 38.56631 | -116.65118 | 37197 ft | 520 kts | 82° |
| 2026-04-29 21:13 | 38.57262 | -116.55954 | 37201 ft | 519 kts | 82° |
| 2026-04-29 21:14 | 38.57886 | -116.46790 | 37203 ft | 521 kts | 82° |
| 2026-04-29 21:14 | 38.58507 | -116.37571 | 37209 ft | 521 kts | 83° |
| 2026-04-29 21:15 | 38.59116 | -116.28400 | 37198 ft | 520 kts | 84° |
| 2026-04-29 21:15 | 38.59724 | -116.19151 | 37111 ft | 521 kts | 83° |
| 2026-04-29 21:16 | 38.60322 | -116.09948 | 37210 ft | 523 kts | 84° |
| 2026-04-29 21:16 | 38.60912 | -116.00731 | 37215 ft | 519 kts | 84° |
| 2026-04-29 21:17 | 38.61496 | -115.91513 | 37199 ft | 522 kts | 84° |
| 2026-04-29 21:17 | 38.62073 | -115.82293 | 37190 ft | 522 kts | 84° |
| 2026-04-29 21:18 | 38.62645 | -115.73032 | 37197 ft | 524 kts | 84° |
| 2026-04-29 21:18 | 38.63209 | -115.63778 | 37201 ft | 525 kts | 84° |
| 2026-04-29 21:19 | 38.63765 | -115.54536 | 37200 ft | 527 kts | 84° |
| 2026-04-29 21:19 | 38.64321 | -115.45167 | 37209 ft | 527 kts | 84° |
| 2026-04-29 21:20 | 38.64866 | -115.35854 | 37198 ft | 528 kts | 84° |
| 2026-04-29 21:20 | 38.65407 | -115.26485 | 37183 ft | 526 kts | 85° |
| 2026-04-29 21:21 | 38.65939 | -115.17139 | 37193 ft | 530 kts | 85° |
| 2026-04-29 21:21 | 38.66465 | -115.07758 | 37189 ft | 529 kts | 85° |
| 2026-04-29 21:22 | 38.66983 | -114.98395 | 37226 ft | 531 kts | 85° |
| 2026-04-29 21:22 | 38.67492 | -114.89059 | 37196 ft | 529 kts | 85° |
| 2026-04-29 21:23 | 38.67999 | -114.79634 | 37191 ft | 533 kts | 85° |
| 2026-04-29 21:23 | 38.68498 | -114.70206 | 37053 ft | 531 kts | 86° |
| 2026-04-29 21:23 | 38.68745 | -114.65476 | 37178 ft | 534 kts | 85° |
| 2026-04-29 21:24 | 38.68991 | -114.60735 | 37207 ft | 538 kts | 86° |
| 2026-04-29 21:24 | 38.69478 | -114.51221 | 37203 ft | 533 kts | 86° |
| 2026-04-29 21:25 | 38.69958 | -114.41718 | 37182 ft | 536 kts | 86° |
| 2026-04-29 21:25 | 38.70427 | -114.32261 | 37189 ft | 537 kts | 87° |
| 2026-04-29 21:26 | 38.70896 | -114.22652 | 37204 ft | 536 kts | 86° |
| 2026-04-29 21:26 | 38.71352 | -114.13154 | 37191 ft | 538 kts | 87° |
| 2026-04-29 21:27 | 38.71805 | -114.03562 | 37192 ft | 539 kts | 87° |
| 2026-04-29 21:27 | 38.72247 | -113.94027 | 37164 ft | 538 kts | 87° |
| 2026-04-29 21:28 | 38.72684 | -113.84435 | 37157 ft | 541 kts | 87° |
| 2026-04-29 21:28 | 38.73110 | -113.74895 | 37155 ft | 539 kts | 87° |
| 2026-04-29 21:29 | 38.73531 | -113.65313 | 37213 ft | 542 kts | 87° |
| 2026-04-29 21:29 | 38.73942 | -113.55772 | 37186 ft | 538 kts | 87° |
| 2026-04-29 21:30 | 38.74349 | -113.46135 | 37192 ft | 543 kts | 88° |
| 2026-04-29 21:30 | 38.74747 | -113.36552 | 37199 ft | 540 kts | 88° |
| 2026-04-29 21:31 | 38.75140 | -113.26861 | 37158 ft | 543 kts | 88° |
| 2026-04-29 21:31 | 38.75524 | -113.17217 | 37177 ft | 541 kts | 88° |
| 2026-04-29 21:32 | 38.75897 | -113.07645 | 37173 ft | 542 kts | 88° |
| 2026-04-29 21:32 | 38.76265 | -112.97980 | 37161 ft | 544 kts | 88° |
| 2026-04-29 21:33 | 38.76628 | -112.88262 | 37190 ft | 545 kts | 88° |
| 2026-04-29 21:33 | 38.76978 | -112.78657 | 37184 ft | 544 kts | 88° |
| 2026-04-29 21:34 | 38.77325 | -112.68940 | 37177 ft | 545 kts | 88° |
| 2026-04-29 21:34 | 38.77661 | -112.59277 | 37186 ft | 544 kts | 88° |
| 2026-04-29 21:35 | 38.77991 | -112.49570 | 37190 ft | 544 kts | 88° |
| 2026-04-29 21:35 | 38.78314 | -112.39832 | 37191 ft | 545 kts | 88° |
| 2026-04-29 21:36 | 38.78626 | -112.30195 | 37189 ft | 544 kts | 89° |
| 2026-04-29 21:36 | 38.78934 | -112.20400 | 37197 ft | 545 kts | 89° |
| 2026-04-29 21:37 | 38.79234 | -112.10636 | 37204 ft | 546 kts | 89° |
| 2026-04-29 21:37 | 38.79524 | -112.00905 | 37205 ft | 546 kts | 89° |
| 2026-04-29 21:38 | 38.79806 | -111.91183 | 37189 ft | 547 kts | 89° |
| 2026-04-29 21:38 | 38.80079 | -111.81485 | 37204 ft | 546 kts | 88° |
| 2026-04-29 21:39 | 38.80346 | -111.71736 | 37194 ft | 546 kts | 89° |
| 2026-04-29 21:39 | 38.80474 | -111.66927 | 37339 ft | 546 kts | 88° |
| 2026-04-29 21:39 | 38.80602 | -111.62095 | 37195 ft | 548 kts | 88° |
| 2026-04-29 21:40 | 38.80853 | -111.52341 | 37186 ft | 544 kts | 89° |
| 2026-04-29 21:40 | 38.81094 | -111.42619 | 37186 ft | 548 kts | 89° |
| 2026-04-29 21:41 | 38.81327 | -111.32925 | 37169 ft | 545 kts | 90° |
| 2026-04-29 21:41 | 38.81552 | -111.23217 | 37155 ft | 549 kts | 89° |
| 2026-04-29 21:42 | 38.81770 | -111.13500 | 37158 ft | 547 kts | 90° |
| 2026-04-29 21:42 | 38.81981 | -111.03707 | 37151 ft | 547 kts | 90° |
| 2026-04-29 21:43 | 38.82182 | -110.93986 | 37149 ft | 547 kts | 89° |
| 2026-04-29 21:43 | 38.82375 | -110.84262 | 37151 ft | 548 kts | 90° |
| 2026-04-29 21:44 | 38.82561 | -110.74487 | 37148 ft | 548 kts | 90° |
| 2026-04-29 21:44 | 38.82739 | -110.64702 | 37151 ft | 548 kts | 89° |
| 2026-04-29 21:45 | 38.82907 | -110.55024 | 37149 ft | 550 kts | 90° |
| 2026-04-29 21:45 | 38.83070 | -110.45194 | 37154 ft | 549 kts | 89° |
| 2026-04-29 21:46 | 38.83224 | -110.35399 | 37144 ft | 550 kts | 90° |
| 2026-04-29 21:46 | 38.83511 | -110.25574 | 37120 ft | 552 kts | 83° |
| 2026-04-29 21:47 | 38.84964 | -110.15958 | 37120 ft | 552 kts | 77° |
| 2026-04-29 21:47 | 38.86556 | -110.06331 | 37114 ft | 551 kts | 78° |
| 2026-04-29 21:48 | 38.88113 | -109.96693 | 37112 ft | 552 kts | 78° |
| 2026-04-29 21:48 | 38.89638 | -109.87090 | 37117 ft | 551 kts | 78° |
| 2026-04-29 21:49 | 38.91160 | -109.77386 | 37123 ft | 552 kts | 78° |
| 2026-04-29 21:49 | 38.92655 | -109.67769 | 37128 ft | 553 kts | 78° |
| 2026-04-29 21:50 | 38.94149 | -109.58083 | 37129 ft | 551 kts | 78° |
| 2026-04-29 21:50 | 38.95632 | -109.48401 | 37137 ft | 553 kts | 78° |
| 2026-04-29 21:51 | 38.97094 | -109.38788 | 37143 ft | 551 kts | 78° |
| 2026-04-29 21:51 | 38.99283 | -109.24292 | 37127 ft | 553 kts | 78° |
| 2026-04-29 21:52 | 39.00736 | -109.14593 | 37140 ft | 555 kts | 79° |
| 2026-04-29 21:52 | 39.02180 | -109.04895 | 37143 ft | 553 kts | 78° |
| 2026-04-29 21:53 | 39.03623 | -108.95149 | 37150 ft | 556 kts | 79° |
| 2026-04-29 21:53 | 39.05057 | -108.85403 | 37146 ft | 552 kts | 79° |
| 2026-04-29 21:54 | 39.05807 | -108.75556 | 37149 ft | 555 kts | 92° |
| 2026-04-29 21:54 | 39.05600 | -108.65721 | 37154 ft | 551 kts | 93° |
| 2026-04-29 21:55 | 39.05349 | -108.55897 | 37155 ft | 554 kts | 93° |
| 2026-04-29 21:55 | 39.05087 | -108.46033 | 37149 ft | 551 kts | 93° |
| 2026-04-29 21:56 | 39.04814 | -108.36184 | 37176 ft | 553 kts | 93° |
| 2026-04-29 21:56 | 39.04533 | -108.26350 | 37180 ft | 551 kts | 94° |
| 2026-04-29 21:57 | 39.04241 | -108.16476 | 37225 ft | 555 kts | 94° |
| 2026-04-29 21:57 | 39.03939 | -108.06528 | 37224 ft | 552 kts | 94° |
| 2026-04-29 21:58 | 39.03629 | -107.96620 | 37217 ft | 555 kts | 94° |
| 2026-04-29 21:58 | 39.03313 | -107.86777 | 37213 ft | 553 kts | 94° |
| 2026-04-29 21:59 | 39.02986 | -107.76844 | 37231 ft | 555 kts | 94° |
| 2026-04-29 21:59 | 39.02652 | -107.66959 | 37239 ft | 553 kts | 94° |
| 2026-04-29 22:00 | 39.02307 | -107.57024 | 37269 ft | 555 kts | 94° |
| 2026-04-29 22:00 | 39.01957 | -107.47152 | 37306 ft | 554 kts | 93° |
| 2026-04-29 22:01 | 39.01596 | -107.37228 | 37290 ft | 556 kts | 94° |
| 2026-04-29 22:01 | 39.01227 | -107.27307 | 37268 ft | 554 kts | 95° |
| 2026-04-29 22:02 | 39.00848 | -107.17354 | 37264 ft | 558 kts | 94° |
| 2026-04-29 22:02 | 39.00459 | -107.07347 | 37270 ft | 556 kts | 95° |
| 2026-04-29 22:03 | 39.00062 | -106.97377 | 37269 ft | 559 kts | 94° |
| 2026-04-29 22:03 | 38.99660 | -106.87463 | 37258 ft | 556 kts | 95° |
| 2026-04-29 22:04 | 38.99246 | -106.77499 | 37253 ft | 558 kts | 94° |
| 2026-04-29 22:04 | 38.98826 | -106.67571 | 37234 ft | 557 kts | 94° |
| 2026-04-29 22:05 | 38.98392 | -106.57544 | 37220 ft | 559 kts | 94° |
| 2026-04-29 22:06 | 38.97729 | -106.42559 | 37214 ft | 563 kts | 94° |
| 2026-04-29 22:06 | 38.97279 | -106.32613 | 37215 ft | 559 kts | 95° |
| 2026-04-29 22:07 | 38.96816 | -106.22604 | 37203 ft | 562 kts | 95° |
| 2026-04-29 22:07 | 38.96344 | -106.12563 | 37202 ft | 560 kts | 95° |
| 2026-04-29 22:08 | 38.95865 | -106.02582 | 37203 ft | 564 kts | 95° |
| 2026-04-29 22:08 | 38.95374 | -105.92509 | 37224 ft | 562 kts | 94° |
| 2026-04-29 22:09 | 38.94877 | -105.82500 | 37221 ft | 562 kts | 95° |
| 2026-04-29 22:09 | 38.94369 | -105.72436 | 37210 ft | 563 kts | 95° |
| 2026-04-29 22:10 | 38.93853 | -105.62391 | 37201 ft | 560 kts | 94° |
| 2026-04-29 22:10 | 38.93331 | -105.52399 | 37186 ft | 563 kts | 94° |
| 2026-04-29 22:11 | 38.92798 | -105.42360 | 37185 ft | 560 kts | 94° |
| 2026-04-29 22:11 | 38.92258 | -105.32369 | 37178 ft | 564 kts | 95° |
| 2026-04-29 22:12 | 38.91710 | -105.22359 | 37179 ft | 565 kts | 95° |
| 2026-04-29 22:12 | 38.91152 | -105.12341 | 37171 ft | 562 kts | 95° |
| 2026-04-29 22:13 | 38.90586 | -105.02341 | 37164 ft | 567 kts | 95° |
| 2026-04-29 22:13 | 38.90009 | -104.92280 | 37148 ft | 564 kts | 95° |
| 2026-04-29 22:14 | 38.89422 | -104.82205 | 37147 ft | 565 kts | 95° |
| 2026-04-29 22:14 | 38.88827 | -104.72144 | 37152 ft | 567 kts | 94° |
| 2026-04-29 22:15 | 38.88226 | -104.62138 | 37165 ft | 566 kts | 94° |
| 2026-04-29 22:15 | 38.87613 | -104.52057 | 37165 ft | 568 kts | 95° |
| 2026-04-29 22:16 | 38.86992 | -104.42008 | 37175 ft | 568 kts | 94° |
| 2026-04-29 22:16 | 38.86357 | -104.31865 | 37139 ft | 568 kts | 95° |
| 2026-04-29 22:17 | 38.85712 | -104.21703 | 37103 ft | 569 kts | 95° |
| 2026-04-29 22:17 | 38.85062 | -104.11610 | 37109 ft | 566 kts | 95° |
| 2026-04-29 22:18 | 38.84404 | -104.01533 | 37104 ft | 569 kts | 95° |
| 2026-04-29 22:18 | 38.83736 | -103.91421 | 37094 ft | 570 kts | 95° |
| 2026-04-29 22:19 | 38.83058 | -103.81304 | 37100 ft | 569 kts | 95° |
| 2026-04-29 22:19 | 38.82370 | -103.71162 | 37111 ft | 570 kts | 95° |
| 2026-04-29 22:20 | 38.81974 | -103.61002 | 37121 ft | 569 kts | 85° |
| 2026-04-29 22:20 | 38.83167 | -103.50993 | 37107 ft | 566 kts | 75° |
| 2026-04-29 22:21 | 38.84659 | -103.41182 | 36998 ft | 564 kts | 76° |
| 2026-04-29 22:21 | 38.85399 | -103.36217 | 37122 ft | 569 kts | 76° |
| 2026-04-29 22:21 | 38.86133 | -103.31227 | 37101 ft | 569 kts | 77° |
| 2026-04-29 22:22 | 38.87568 | -103.21317 | 37101 ft | 566 kts | 77° |
| 2026-04-29 22:22 | 38.88272 | -103.16402 | 37252 ft | 564 kts | 77° |
| 2026-04-29 22:22 | 38.88972 | -103.11479 | 37111 ft | 561 kts | 77° |
| 2026-04-29 22:23 | 38.90366 | -103.01611 | 37122 ft | 566 kts | 77° |
| 2026-04-29 22:23 | 38.91056 | -102.96689 | 36958 ft | 563 kts | 77° |
| 2026-04-29 22:23 | 38.91750 | -102.91720 | 37171 ft | 563 kts | 77° |
| 2026-04-29 22:24 | 38.93112 | -102.81902 | 37124 ft | 561 kts | 77° |
| 2026-04-29 22:24 | 38.94466 | -102.72075 | 37125 ft | 560 kts | 77° |
| 2026-04-29 22:25 | 38.95810 | -102.62248 | 37121 ft | 561 kts | 77° |
| 2026-04-29 22:25 | 38.97145 | -102.52423 | 37117 ft | 559 kts | 77° |
| 2026-04-29 22:26 | 38.98478 | -102.42550 | 37117 ft | 561 kts | 77° |
| 2026-04-29 22:26 | 38.99790 | -102.32754 | 37105 ft | 559 kts | 78° |
| 2026-04-29 22:27 | 39.01105 | -102.22882 | 37096 ft | 560 kts | 78° |
| 2026-04-29 22:27 | 39.02411 | -102.13002 | 37091 ft | 559 kts | 78° |
| 2026-04-29 22:28 | 39.03710 | -102.03111 | 37089 ft | 561 kts | 78° |
| 2026-04-29 22:28 | 39.04992 | -101.93285 | 37089 ft | 560 kts | 78° |
| 2026-04-29 22:29 | 39.06271 | -101.83417 | 37089 ft | 560 kts | 78° |
| 2026-04-29 22:29 | 39.07542 | -101.73537 | 37091 ft | 559 kts | 78° |
| 2026-04-29 22:30 | 39.08805 | -101.63652 | 37092 ft | 560 kts | 78° |
| 2026-04-29 22:30 | 39.10051 | -101.53835 | 37093 ft | 559 kts | 78° |
| 2026-04-29 22:31 | 39.11304 | -101.43887 | 37095 ft | 560 kts | 78° |
| 2026-04-29 22:31 | 39.12529 | -101.34093 | 37096 ft | 558 kts | 79° |
| 2026-04-29 22:32 | 39.13765 | -101.24154 | 37082 ft | 560 kts | 79° |
| 2026-04-29 22:32 | 39.14980 | -101.14294 | 37084 ft | 559 kts | 78° |
| 2026-04-29 22:33 | 39.16187 | -101.04443 | 37085 ft | 559 kts | 78° |
| 2026-04-29 22:33 | 39.17388 | -100.94562 | 37102 ft | 558 kts | 78° |
| 2026-04-29 22:34 | 39.18579 | -100.84698 | 37110 ft | 560 kts | 78° |
| 2026-04-29 22:34 | 39.19762 | -100.74815 | 37119 ft | 558 kts | 78° |
| 2026-04-29 22:35 | 39.20935 | -100.64948 | 37110 ft | 558 kts | 78° |
| 2026-04-29 22:35 | 39.22104 | -100.55047 | 37105 ft | 557 kts | 78° |
| 2026-04-29 22:36 | 39.23263 | -100.45157 | 37106 ft | 558 kts | 79° |
| 2026-04-29 22:36 | 39.24414 | -100.35260 | 37112 ft | 558 kts | 78° |
| 2026-04-29 22:37 | 39.25552 | -100.25384 | 37091 ft | 559 kts | 80° |
| 2026-04-29 22:37 | 39.26052 | -100.15374 | 37102 ft | 562 kts | 86° |
| 2026-04-29 22:37 | 39.26197 | -100.10376 | 36969 ft | 560 kts | 86° |
| 2026-04-29 22:38 | 39.26338 | -100.05328 | 37217 ft | 563 kts | 86° |
| 2026-04-29 22:38 | 39.26475 | -100.00311 | 37112 ft | 563 kts | 86° |
| 2026-04-29 22:38 | 39.26610 | -99.95258 | 37015 ft | 559 kts | 87° |
| 2026-04-29 22:38 | 39.26740 | -99.90299 | 37125 ft | 565 kts | 86° |
| 2026-04-29 22:39 | 39.26870 | -99.85205 | 37242 ft | 563 kts | 86° |
| 2026-04-29 22:39 | 39.26998 | -99.80134 | 37121 ft | 562 kts | 86° |
| 2026-04-29 22:39 | 39.27121 | -99.75143 | 36951 ft | 560 kts | 86° |
| 2026-04-29 22:39 | 39.27242 | -99.70149 | 37132 ft | 563 kts | 86° |
| 2026-04-29 22:40 | 39.27362 | -99.65079 | 37239 ft | 564 kts | 87° |
| 2026-04-29 22:40 | 39.27479 | -99.60068 | 37063 ft | 561 kts | 87° |
| 2026-04-29 22:40 | 39.27594 | -99.54996 | 37051 ft | 563 kts | 87° |
| 2026-04-29 22:41 | 39.27818 | -99.44904 | 37120 ft | 563 kts | 86° |
| 2026-04-29 22:41 | 39.27925 | -99.39902 | 37240 ft | 561 kts | 86° |
| 2026-04-29 22:41 | 39.28031 | -99.34911 | 36973 ft | 563 kts | 87° |
| 2026-04-29 22:41 | 39.28135 | -99.29884 | 37225 ft | 561 kts | 88° |
| 2026-04-29 22:42 | 39.28236 | -99.24860 | 36959 ft | 564 kts | 87° |
| 2026-04-29 22:42 | 39.28336 | -99.19805 | 37109 ft | 562 kts | 88° |
| 2026-04-29 22:42 | 39.28434 | -99.14718 | 37231 ft | 564 kts | 88° |
| 2026-04-29 22:42 | 39.28529 | -99.09719 | 37051 ft | 562 kts | 87° |
| 2026-04-29 22:43 | 39.28622 | -99.04660 | 37087 ft | 564 kts | 88° |
| 2026-04-29 22:43 | 39.28802 | -98.94576 | 37232 ft | 563 kts | 88° |
| 2026-04-29 22:43 | 39.28888 | -98.89584 | 37087 ft | 564 kts | 87° |
| 2026-04-29 22:44 | 39.28973 | -98.84512 | 37111 ft | 563 kts | 88° |
| 2026-04-29 22:44 | 39.29134 | -98.74453 | 37120 ft | 564 kts | 88° |
| 2026-04-29 22:45 | 39.29288 | -98.64322 | 37101 ft | 563 kts | 87° |
| 2026-04-29 22:45 | 39.29435 | -98.54170 | 37122 ft | 566 kts | 87° |
| 2026-04-29 22:46 | 39.29571 | -98.44074 | 37133 ft | 564 kts | 87° |
| 2026-04-29 22:46 | 39.29699 | -98.33951 | 37117 ft | 564 kts | 88° |
| 2026-04-29 22:47 | 39.29819 | -98.23754 | 37096 ft | 564 kts | 89° |
| 2026-04-29 22:47 | 39.29929 | -98.13637 | 37105 ft | 565 kts | 89° |
| 2026-04-29 22:48 | 39.30030 | -98.03505 | 37095 ft | 564 kts | 89° |
| 2026-04-29 22:48 | 39.30123 | -97.93324 | 37108 ft | 566 kts | 89° |
| 2026-04-29 22:49 | 39.30207 | -97.83221 | 37103 ft | 567 kts | 88° |
| 2026-04-29 22:49 | 39.30283 | -97.73051 | 37118 ft | 566 kts | 88° |
| 2026-04-29 22:50 | 39.30349 | -97.62879 | 37110 ft | 566 kts | 88° |
| 2026-04-29 22:50 | 39.30407 | -97.52729 | 37134 ft | 569 kts | 88° |
| 2026-04-29 22:51 | 39.30456 | -97.42564 | 37115 ft | 565 kts | 89° |
| 2026-04-29 22:51 | 39.30513 | -97.27305 | 37102 ft | 567 kts | 89° |
| 2026-04-29 22:52 | 39.30540 | -97.17118 | 37105 ft | 568 kts | 89° |
| 2026-04-29 22:52 | 39.30558 | -97.06926 | 37106 ft | 567 kts | 89° |
| 2026-04-29 22:53 | 39.30567 | -96.96799 | 37091 ft | 568 kts | 89° |
| 2026-04-29 22:53 | 39.30568 | -96.86635 | 37117 ft | 568 kts | 89° |
| 2026-04-29 22:54 | 39.30559 | -96.76465 | 37120 ft | 568 kts | 89° |
| 2026-04-29 22:54 | 39.30542 | -96.66302 | 37126 ft | 569 kts | 89° |
| 2026-04-29 22:55 | 39.30515 | -96.56065 | 37127 ft | 569 kts | 89° |
| 2026-04-29 22:55 | 39.30480 | -96.45908 | 37127 ft | 570 kts | 89° |
| 2026-04-29 22:56 | 39.30436 | -96.35674 | 37126 ft | 569 kts | 89° |
| 2026-04-29 22:56 | 39.30383 | -96.25491 | 37084 ft | 570 kts | 90° |
| 2026-04-29 22:57 | 39.30321 | -96.15275 | 37126 ft | 570 kts | 90° |
| 2026-04-29 22:57 | 39.30250 | -96.05100 | 37123 ft | 569 kts | 90° |
| 2026-04-29 22:58 | 39.30168 | -95.94861 | 37106 ft | 571 kts | 90° |
| 2026-04-29 22:58 | 39.30079 | -95.84660 | 37083 ft | 572 kts | 90° |
| 2026-04-29 22:59 | 39.29980 | -95.74431 | 37108 ft | 572 kts | 90° |
| 2026-04-29 22:59 | 39.29872 | -95.64194 | 37112 ft | 570 kts | 90° |
| 2026-04-29 23:00 | 39.29755 | -95.53976 | 37124 ft | 572 kts | 90° |
| 2026-04-29 23:00 | 39.29630 | -95.43758 | 37123 ft | 572 kts | 90° |
| 2026-04-29 23:01 | 39.29494 | -95.33481 | 37113 ft | 573 kts | 90° |
| 2026-04-29 23:01 | 39.29350 | -95.23218 | 37104 ft | 574 kts | 90° |
| 2026-04-29 23:02 | 39.29196 | -95.12918 | 37105 ft | 572 kts | 90° |
| 2026-04-29 23:02 | 39.29034 | -95.02631 | 37108 ft | 575 kts | 90° |
| 2026-04-29 23:03 | 39.28862 | -94.92320 | 37127 ft | 574 kts | 91° |
| 2026-04-29 23:03 | 39.28682 | -94.82085 | 37124 ft | 574 kts | 91° |
| 2026-04-29 23:04 | 39.28364 | -94.71812 | 37138 ft | 574 kts | 95° |
| 2026-04-29 23:04 | 39.27548 | -94.61584 | 37126 ft | 574 kts | 96° |
| 2026-04-29 23:05 | 39.26699 | -94.51337 | 37125 ft | 575 kts | 96° |
| 2026-04-29 23:05 | 39.26276 | -94.46261 | 37256 ft | 574 kts | 96° |
| 2026-04-29 23:05 | 39.25845 | -94.41124 | 37093 ft | 571 kts | 96° |
| 2026-04-29 23:06 | 39.25418 | -94.36043 | 37275 ft | 575 kts | 96° |
| 2026-04-29 23:06 | 39.24977 | -94.30836 | 37136 ft | 575 kts | 97° |
| 2026-04-29 23:06 | 39.24107 | -94.20633 | 37177 ft | 574 kts | 97° |
| 2026-04-29 23:07 | 39.23224 | -94.10382 | 37123 ft | 573 kts | 97° |
| 2026-04-29 23:07 | 39.22335 | -94.00156 | 37114 ft | 573 kts | 97° |
| 2026-04-29 23:08 | 39.21441 | -93.89989 | 37116 ft | 575 kts | 97° |
| 2026-04-29 23:08 | 39.20535 | -93.79791 | 37118 ft | 575 kts | 97° |
| 2026-04-29 23:09 | 39.19622 | -93.69599 | 37123 ft | 574 kts | 97° |
| 2026-04-29 23:09 | 39.18695 | -93.59369 | 37121 ft | 574 kts | 97° |
| 2026-04-29 23:10 | 39.17762 | -93.49175 | 37122 ft | 574 kts | 97° |
| 2026-04-29 23:10 | 39.16823 | -93.39025 | 37131 ft | 575 kts | 97° |
| 2026-04-29 23:11 | 39.15869 | -93.28811 | 37114 ft | 574 kts | 97° |
| 2026-04-29 23:11 | 39.14909 | -93.18636 | 37114 ft | 574 kts | 97° |
| 2026-04-29 23:12 | 39.13945 | -93.08500 | 37118 ft | 575 kts | 97° |
| 2026-04-29 23:12 | 39.12956 | -92.98205 | 37116 ft | 576 kts | 98° |
| 2026-04-29 23:13 | 39.11962 | -92.87957 | 37110 ft | 574 kts | 98° |
| 2026-04-29 23:13 | 39.10966 | -92.77782 | 37107 ft | 577 kts | 97° |
| 2026-04-29 23:14 | 39.09961 | -92.67606 | 37112 ft | 574 kts | 97° |
| 2026-04-29 23:14 | 39.08946 | -92.57424 | 37118 ft | 578 kts | 97° |
| 2026-04-29 23:15 | 39.07919 | -92.47210 | 37111 ft | 577 kts | 98° |
| 2026-04-29 23:15 | 39.06885 | -92.37029 | 37106 ft | 575 kts | 97° |
| 2026-04-29 23:16 | 39.05839 | -92.26815 | 37095 ft | 577 kts | 98° |
| 2026-04-29 23:16 | 39.04785 | -92.16607 | 37091 ft | 577 kts | 98° |
| 2026-04-29 23:17 | 39.03725 | -92.06432 | 37099 ft | 576 kts | 98° |
| 2026-04-29 23:17 | 39.02655 | -91.96253 | 37089 ft | 577 kts | 98° |
| 2026-04-29 23:18 | 39.01579 | -91.86097 | 37095 ft | 577 kts | 98° |
| 2026-04-29 23:18 | 39.00486 | -91.75865 | 37097 ft | 576 kts | 98° |
| 2026-04-29 23:19 | 38.99395 | -91.65736 | 37091 ft | 577 kts | 98° |
| 2026-04-29 23:19 | 38.98840 | -91.60618 | 36923 ft | 577 kts | 98° |
| 2026-04-29 23:19 | 38.98283 | -91.55503 | 37087 ft | 579 kts | 98° |
| 2026-04-29 23:20 | 38.97165 | -91.45297 | 37093 ft | 578 kts | 98° |
| 2026-04-29 23:20 | 38.96039 | -91.35098 | 37092 ft | 578 kts | 98° |
| 2026-04-29 23:21 | 38.94907 | -91.24926 | 37070 ft | 576 kts | 99° |
| 2026-04-29 23:21 | 38.93761 | -91.14721 | 37073 ft | 578 kts | 99° |
| 2026-04-29 23:22 | 38.92614 | -91.04580 | 37080 ft | 576 kts | 99° |
| 2026-04-29 23:22 | 38.91456 | -90.94421 | 37071 ft | 578 kts | 99° |
| 2026-04-29 23:23 | 38.90276 | -90.84162 | 37073 ft | 578 kts | 99° |
| 2026-04-29 23:23 | 38.89099 | -90.74007 | 37064 ft | 576 kts | 99° |
| 2026-04-29 23:24 | 38.87917 | -90.63878 | 37078 ft | 576 kts | 99° |
| 2026-04-29 23:24 | 38.86725 | -90.53754 | 37074 ft | 575 kts | 99° |
| 2026-04-29 23:25 | 38.84597 | -90.43913 | 37078 ft | 572 kts | 115° |
| 2026-04-29 23:25 | 38.81566 | -90.34488 | 37087 ft | 571 kts | 116° |
| 2026-04-29 23:26 | 38.78497 | -90.25086 | 37067 ft | 571 kts | 116° |
| 2026-04-29 23:26 | 38.75411 | -90.15680 | 37059 ft | 571 kts | 116° |
| 2026-04-29 23:27 | 38.72335 | -90.06341 | 37065 ft | 572 kts | 116° |
| 2026-04-29 23:27 | 38.69253 | -89.97015 | 37070 ft | 570 kts | 116° |
| 2026-04-29 23:28 | 38.66140 | -89.87632 | 37055 ft | 572 kts | 116° |
| 2026-04-29 23:28 | 38.63024 | -89.78268 | 37064 ft | 571 kts | 117° |
| 2026-04-29 23:29 | 38.59918 | -89.68969 | 37069 ft | 571 kts | 117° |
| 2026-04-29 23:29 | 38.56823 | -89.59733 | 37058 ft | 569 kts | 117° |
| 2026-04-29 23:30 | 38.53691 | -89.50417 | 37068 ft | 571 kts | 116° |
| 2026-04-29 23:30 | 38.50539 | -89.41071 | 37067 ft | 570 kts | 117° |
| 2026-04-29 23:31 | 38.47403 | -89.31800 | 37046 ft | 570 kts | 117° |
| 2026-04-29 23:31 | 38.44266 | -89.22557 | 37024 ft | 570 kts | 117° |
| 2026-04-29 23:32 | 38.41998 | -89.12837 | 37039 ft | 577 kts | 99° |
| 2026-04-29 23:32 | 38.41362 | -89.02674 | 37042 ft | 576 kts | 93° |
| 2026-04-29 23:33 | 38.40794 | -88.92469 | 37047 ft | 576 kts | 94° |
| 2026-04-29 23:33 | 38.40202 | -88.82357 | 37043 ft | 576 kts | 94° |
| 2026-04-29 23:34 | 38.39593 | -88.72169 | 37044 ft | 576 kts | 94° |
| 2026-04-29 23:34 | 38.38972 | -88.61964 | 37046 ft | 576 kts | 94° |
| 2026-04-29 23:35 | 38.38347 | -88.51843 | 37042 ft | 576 kts | 94° |
| 2026-04-29 23:35 | 38.37712 | -88.41731 | 37051 ft | 576 kts | 94° |
| 2026-04-29 23:36 | 38.37066 | -88.31570 | 36914 ft | 571 kts | 95° |
| 2026-04-29 23:36 | 38.36743 | -88.26551 | 36423 ft | 576 kts | 95° |
| 2026-04-29 23:36 | 38.36421 | -88.21475 | 35880 ft | 581 kts | 95° |
| 2026-04-29 23:37 | 38.36097 | -88.16351 | 35536 ft | 584 kts | 95° |
| 2026-04-29 23:37 | 38.35768 | -88.11185 | 35355 ft | 582 kts | 95° |
| 2026-04-29 23:37 | 38.35441 | -88.06092 | 35101 ft | 576 kts | 95° |
| 2026-04-29 23:37 | 38.35116 | -88.01061 | 34538 ft | 577 kts | 95° |
| 2026-04-29 23:38 | 38.34784 | -87.95959 | 33670 ft | 584 kts | 95° |
| 2026-04-29 23:38 | 38.34445 | -87.90784 | 32770 ft | 589 kts | 95° |
| 2026-04-29 23:38 | 38.34105 | -87.85626 | 32127 ft | 588 kts | 95° |
| 2026-04-29 23:38 | 38.33762 | -87.80466 | 31589 ft | 584 kts | 95° |
| 2026-04-29 23:39 | 38.33420 | -87.75349 | 31132 ft | 579 kts | 95° |
| 2026-04-29 23:39 | 38.33080 | -87.70308 | 30897 ft | 570 kts | 95° |
| 2026-04-29 23:39 | 38.32741 | -87.65295 | 30337 ft | 567 kts | 95° |
| 2026-04-29 23:39 | 38.32399 | -87.60282 | 29546 ft | 569 kts | 95° |
| 2026-04-29 23:40 | 38.32057 | -87.55300 | 28984 ft | 565 kts | 95° |
| 2026-04-29 23:40 | 38.31714 | -87.50328 | 28564 ft | 558 kts | 95° |
| 2026-04-29 23:40 | 38.31376 | -87.45458 | 28129 ft | 552 kts | 95° |
| 2026-04-29 23:40 | 38.31038 | -87.40630 | 27662 ft | 546 kts | 95° |
| 2026-04-29 23:41 | 38.30703 | -87.35865 | 27164 ft | 542 kts | 95° |
| 2026-04-29 23:41 | 38.30367 | -87.31112 | 26633 ft | 537 kts | 96° |
| 2026-04-29 23:41 | 38.30035 | -87.26445 | 26051 ft | 534 kts | 96° |
| 2026-04-29 23:41 | 38.29700 | -87.21773 | 25528 ft | 529 kts | 96° |
| 2026-04-29 23:42 | 38.29368 | -87.17150 | 25024 ft | 523 kts | 96° |
| 2026-04-29 23:42 | 38.29037 | -87.12565 | 24533 ft | 517 kts | 96° |
| 2026-04-29 23:42 | 38.28709 | -87.08054 | 24037 ft | 512 kts | 96° |
| 2026-04-29 23:42 | 38.28379 | -87.03551 | 23496 ft | 508 kts | 96° |
| 2026-04-29 23:43 | 38.28056 | -86.99150 | 23067 ft | 500 kts | 96° |
| 2026-04-29 23:43 | 38.27731 | -86.94749 | 23012 ft | 498 kts | 96° |
| 2026-04-29 23:43 | 38.27404 | -86.90369 | 23011 ft | 505 kts | 96° |
| 2026-04-29 23:43 | 38.27071 | -86.85909 | 23006 ft | 504 kts | 96° |
| 2026-04-29 23:44 | 38.26740 | -86.81498 | 23009 ft | 502 kts | 96° |
| 2026-04-29 23:44 | 38.26411 | -86.77133 | 23008 ft | 503 kts | 96° |
| 2026-04-29 23:44 | 38.26186 | -86.72669 | 22998 ft | 502 kts | 89° |
| 2026-04-29 23:44 | 38.26452 | -86.68288 | 22955 ft | 503 kts | 79° |
| 2026-04-29 23:45 | 38.27141 | -86.63915 | 22754 ft | 502 kts | 75° |
| 2026-04-29 23:45 | 38.27914 | -86.59606 | 22551 ft | 497 kts | 74° |
| 2026-04-29 23:45 | 38.28680 | -86.55356 | 22378 ft | 496 kts | 75° |
| 2026-04-29 23:45 | 38.29452 | -86.51059 | 22214 ft | 494 kts | 75° |
| 2026-04-29 23:46 | 38.30207 | -86.46835 | 22044 ft | 494 kts | 75° |
| 2026-04-29 23:46 | 38.30966 | -86.42573 | 21884 ft | 492 kts | 75° |
| 2026-04-29 23:46 | 38.31714 | -86.38364 | 21701 ft | 491 kts | 75° |
| 2026-04-29 23:46 | 38.32466 | -86.34114 | 21529 ft | 490 kts | 75° |
| 2026-04-29 23:47 | 38.33207 | -86.29917 | 21349 ft | 489 kts | 75° |
| 2026-04-29 23:47 | 38.33948 | -86.25702 | 21173 ft | 488 kts | 75° |
| 2026-04-29 23:47 | 38.34804 | -86.21541 | 21005 ft | 483 kts | 68° |
| 2026-04-29 23:47 | 38.36094 | -86.17665 | 20784 ft | 480 kts | 59° |
| 2026-04-29 23:48 | 38.37686 | -86.13916 | 20356 ft | 476 kts | 56° |
| 2026-04-29 23:48 | 38.39287 | -86.10248 | 19955 ft | 471 kts | 56° |
| 2026-04-29 23:48 | 38.40865 | -86.06634 | 19561 ft | 465 kts | 56° |
| 2026-04-29 23:48 | 38.42426 | -86.03056 | 19192 ft | 461 kts | 56° |
| 2026-04-29 23:49 | 38.43982 | -85.99485 | 18938 ft | 462 kts | 56° |
| 2026-04-29 23:49 | 38.45536 | -85.95915 | 18499 ft | 458 kts | 56° |
| 2026-04-29 23:49 | 38.47065 | -85.92391 | 18221 ft | 453 kts | 56° |
| 2026-04-29 23:49 | 38.48595 | -85.88866 | 17820 ft | 453 kts | 56° |
| 2026-04-29 23:50 | 38.50108 | -85.85374 | 17538 ft | 447 kts | 56° |
| 2026-04-29 23:50 | 38.51594 | -85.81941 | 17135 ft | 446 kts | 56° |
| 2026-04-29 23:50 | 38.54581 | -85.75029 | 16561 ft | 442 kts | 56° |
| 2026-04-29 23:51 | 38.56052 | -85.71619 | 16183 ft | 439 kts | 56° |
| 2026-04-29 23:51 | 38.57518 | -85.68214 | 15848 ft | 435 kts | 56° |
| 2026-04-29 23:51 | 38.58971 | -85.64838 | 15656 ft | 430 kts | 56° |
| 2026-04-29 23:51 | 38.60422 | -85.61468 | 15586 ft | 434 kts | 56° |
| 2026-04-29 23:52 | 38.61867 | -85.58108 | 15647 ft | 434 kts | 56° |
| 2026-04-29 23:52 | 38.63321 | -85.54719 | 15597 ft | 433 kts | 56° |
| 2026-04-29 23:52 | 38.64761 | -85.51361 | 15366 ft | 436 kts | 56° |
| 2026-04-29 23:52 | 38.66214 | -85.47970 | 14841 ft | 435 kts | 56° |
| 2026-04-29 23:53 | 38.67658 | -85.44595 | 14273 ft | 432 kts | 56° |
| 2026-04-29 23:53 | 38.69249 | -85.41410 | 13726 ft | 419 kts | 48° |
| 2026-04-29 23:53 | 38.70974 | -85.38412 | 13250 ft | 416 kts | 47° |
| 2026-04-29 23:53 | 38.72704 | -85.35426 | 12753 ft | 413 kts | 48° |
| 2026-04-29 23:54 | 38.74409 | -85.32482 | 12254 ft | 410 kts | 49° |
| 2026-04-29 23:54 | 38.76072 | -85.29589 | 11747 ft | 407 kts | 51° |
| 2026-04-29 23:54 | 38.77485 | -85.26403 | 11239 ft | 408 kts | 63° |
| 2026-04-29 23:54 | 38.78393 | -85.23023 | 10782 ft | 406 kts | 75° |
| 2026-04-29 23:55 | 38.78793 | -85.19479 | 10579 ft | 398 kts | 85° |
| 2026-04-29 23:55 | 38.78940 | -85.15933 | 9898 ft | 397 kts | 87° |
| 2026-04-29 23:55 | 38.79059 | -85.12455 | 9220 ft | 386 kts | 87° |
| 2026-04-29 23:55 | 38.79169 | -85.09088 | 8658 ft | 373 kts | 86° |
| 2026-04-29 23:56 | 38.79272 | -85.05859 | 8052 ft | 363 kts | 86° |
| 2026-04-29 23:56 | 38.79373 | -85.02650 | 7507 ft | 351 kts | 86° |
| 2026-04-29 23:56 | 38.79480 | -84.99631 | 7108 ft | 336 kts | 82° |
| 2026-04-29 23:56 | 38.79950 | -84.96783 | 6758 ft | 319 kts | 71° |
| 2026-04-29 23:57 | 38.80584 | -84.94112 | 6557 ft | 302 kts | 69° |
| 2026-04-29 23:57 | 38.81204 | -84.91608 | 6274 ft | 289 kts | 69° |
| 2026-04-29 23:57 | 38.81808 | -84.89173 | 6080 ft | 284 kts | 69° |
| 2026-04-29 23:57 | 38.82398 | -84.86783 | 5840 ft | 280 kts | 68° |
| 2026-04-29 23:58 | 38.82983 | -84.84409 | 5571 ft | 275 kts | 69° |
| 2026-04-29 23:58 | 38.83536 | -84.82153 | 5367 ft | 261 kts | 68° |
| 2026-04-29 23:58 | 38.84067 | -84.79984 | 5150 ft | 249 kts | 68° |
| 2026-04-29 23:58 | 38.84578 | -84.77905 | 4998 ft | 242 kts | 67° |
| 2026-04-29 23:59 | 38.85082 | -84.75858 | 4775 ft | 239 kts | 67° |
| 2026-04-29 23:59 | 38.85577 | -84.73838 | 4570 ft | 235 kts | 66° |
| 2026-04-29 23:59 | 38.86063 | -84.71851 | 4377 ft | 231 kts | 66° |
| 2026-04-29 23:59 | 38.86539 | -84.69904 | 4179 ft | 223 kts | 65° |
| 2026-04-30 00:00 | 38.87245 | -84.68289 | 3977 ft | 198 kts | 39° |
| 2026-04-30 00:00 | 38.88300 | -84.67320 | 3808 ft | 182 kts | 12° |
| 2026-04-30 00:00 | 38.89504 | -84.66942 | 3570 ft | 173 kts | 359° |
| 2026-04-30 00:00 | 38.90694 | -84.66905 | 3347 ft | 169 kts | 353° |
| 2026-04-30 00:01 | 38.91855 | -84.66924 | 3126 ft | 168 kts | 354° |
| 2026-04-30 00:01 | 38.93028 | -84.66918 | 2899 ft | 166 kts | 354° |
| 2026-04-30 00:01 | 38.94189 | -84.66913 | 2682 ft | 167 kts | 354° |
| 2026-04-30 00:01 | 38.95354 | -84.66909 | 2456 ft | 165 kts | 353° |
| 2026-04-30 00:02 | 38.96452 | -84.66902 | 2249 ft | 153 kts | 353° |
| 2026-04-30 00:02 | 38.97474 | -84.66900 | 2067 ft | 139 kts | 352° |
| 2026-04-30 00:02 | 38.98406 | -84.66895 | 1886 ft | 131 kts | 351° |
| 2026-04-30 00:02 | 38.99311 | -84.66893 | 1703 ft | 129 kts | 351° |
| 2026-04-30 00:03 | 39.00230 | -84.66891 | 1494 ft | 132 kts | 351° |
| 2026-04-30 00:03 | 39.01145 | -84.66885 | 1303 ft | 134 kts | 353° |
| 2026-04-30 00:03 | 39.02073 | -84.66879 | 1142 ft | 134 kts | 352° |
| 2026-04-30 00:03 | 39.03014 | -84.66875 | 992 ft | 132 kts | 354° |
| 2026-04-30 00:04 | 39.03911 | -84.66872 | 853 ft | 118 kts | 358° |
| 2026-04-30 00:04 | 39.04579 | -84.66865 | 867 ft | 73 kts | 359° |
| 2026-04-30 00:04 | 39.04939 | -84.66859 | 877 ft | 36 kts | 11° |
| 2026-04-30 00:04 | 39.05009 | -84.66751 | 875 ft | 7 kts | 129° |
| 2026-04-30 00:05 | 39.04998 | -84.66743 | 875 ft | 0 kts | 156° |
| 2026-04-30 00:06 | 39.04993 | -84.66740 | 875 ft | 2 kts | 161° |
| 2026-04-30 00:06 | 39.04962 | -84.66733 | 874 ft | 7 kts | 172° |
| 2026-04-30 00:06 | 39.04890 | -84.66729 | 873 ft | 12 kts | 180° |
| 2026-04-30 00:06 | 39.04795 | -84.66730 | 871 ft | 16 kts | 180° |
| 2026-04-30 00:07 | 39.04679 | -84.66731 | 869 ft | 16 kts | 180° |
| 2026-04-30 00:07 | 39.04540 | -84.66727 | 863 ft | 23 kts | 176° |
| 2026-04-30 00:07 | 39.04366 | -84.66730 | 859 ft | 25 kts | 182° |
| 2026-04-30 00:07 | 39.04193 | -84.66733 | 856 ft | 24 kts | 180° |
| 2026-04-30 00:08 | 39.04039 | -84.66733 | 853 ft | 18 kts | 180° |
| 2026-04-30 00:08 | 39.03922 | -84.66734 | 852 ft | 16 kts | 180° |
| 2026-04-30 00:08 | 39.03809 | -84.66734 | 851 ft | 16 kts | 179° |
| 2026-04-30 00:08 | 39.03692 | -84.66733 | 848 ft | 17 kts | 179° |
| 2026-04-30 00:09 | 39.03591 | -84.66679 | 846 ft | 17 kts | 99° |
| 2026-04-30 00:09 | 39.03592 | -84.66489 | 847 ft | 24 kts | 90° |
| 2026-04-30 00:09 | 39.03588 | -84.66258 | 851 ft | 27 kts | 93° |
| 2026-04-30 00:09 | 39.03577 | -84.66031 | 857 ft | 23 kts | 93° |
| 2026-04-30 00:10 | 39.03574 | -84.65837 | 862 ft | 19 kts | 90° |
| 2026-04-30 00:10 | 39.03575 | -84.65693 | 868 ft | 13 kts | 88° |
| 2026-04-30 00:10 | 39.03579 | -84.65589 | 870 ft | 9 kts | 86° |
| 2026-04-30 00:10 | 39.03608 | -84.65537 | 871 ft | 6 kts | 359° |
| 2026-04-30 00:11 | 39.03629 | -84.65539 | 870 ft | 2 kts | 358° |
| 2026-04-30 00:11 | 39.03635 | -84.65539 | 870 ft | 0 kts | 359° |
| 2026-04-30 00:11 | 39.03643 | -84.65539 | 870 ft | 2 kts | 359° |
| 2026-04-30 00:11 | 39.03658 | -84.65540 | 870 ft | 1 kts | 0° |
| 2026-04-30 00:12 | 39.03667 | -84.65540 | 870 ft | 1 kts | 360° |
| 2026-04-30 00:12 | 39.03669 | -84.65540 | 870 ft | 0 kts | 360° |